Terminal Aerodrome Forecast
Issued by NWS

Home | Current Version | Previous Version | Text Only | Print | Product List | Glossary On
Versions: 1 2 3 4 5 6 7 8 9 10 11 12 13 14 15 16 17 18 19
022
FTUS42 KFFC 300520
TAFPDK
TAF
KPDK 300520Z 3006/3106 00000KT P6SM SCT060
     FM301200 15003KT P6SM BKN040
     FM301700 15008KT P6SM BKN050
     FM302200 17010KT P6SM VCSH BKN050
     FM310200 19008KT 5SM -SHRA BKN030 PROB30 3103/3106 VRB20G30KT
      3SM TSRA BKN020CB=

USA.gov is the U.S. government's official web portal to all federal, state and local government web resources and services.